createdAt,value
2022-09-02T00:01:29.679Z,2.72
2022-09-02T00:04:01.567Z,2.88
2022-09-02T00:09:00.984Z,2.55
2022-09-02T00:11:31.724Z,2.80
2022-09-02T00:14:03.976Z,2.50
2022-09-02T00:16:33.575Z,2.55
2022-09-02T00:19:05.339Z,2.70
2022-09-02T00:21:34.865Z,2.80
2022-09-02T00:24:05.780Z,3.10
2022-09-02T00:26:34.427Z,2.70
2022-09-02T00:29:03.127Z,3.00
2022-09-02T00:31:33.802Z,2.55
2022-09-02T00:34:03.105Z,2.70
2022-09-02T00:36:33.293Z,2.50
2022-09-02T00:39:02.390Z,2.75
2022-09-02T00:41:32.578Z,2.47
2022-09-02T00:44:05.221Z,2.40
2022-09-02T00:46:35.335Z,2.55
2022-09-02T00:49:25.225Z,2.58
2022-09-02T00:52:07.919Z,3.00
2022-09-02T00:57:24.113Z,2.42
2022-09-02T01:00:02.509Z,2.30
2022-09-02T01:02:31.824Z,2.15
2022-09-02T01:05:00.653Z,2.10
2022-09-02T01:07:34.048Z,2.63
2022-09-02T01:10:03.640Z,2.50
2022-09-02T01:12:32.825Z,2.70
2022-09-02T01:15:02.194Z,2.30
2022-09-02T01:17:34.296Z,2.30
2022-09-02T01:20:08.859Z,2.10
2022-09-02T01:22:39.092Z,2.50
2022-09-02T01:25:14.735Z,2.50
2022-09-02T01:27:43.615Z,2.40
2022-09-02T01:30:16.822Z,2.42
2022-09-02T01:32:45.264Z,2.50
2022-09-02T01:35:15.167Z,2.55
2022-09-02T01:37:50.674Z,2.40
2022-09-02T01:40:26.222Z,2.10
2022-09-02T01:42:58.686Z,2.28
2022-09-02T01:45:28.522Z,2.00
2022-09-02T01:47:56.866Z,2.10
2022-09-02T01:50:25.388Z,2.03
2022-09-02T01:52:53.941Z,2.20
2022-09-02T01:55:22.960Z,2.17
2022-09-02T01:57:52.228Z,1.95
2022-09-02T02:00:22.638Z,2.28
2022-09-02T02:02:50.965Z,2.10
2022-09-02T02:05:19.582Z,2.17
2022-09-02T02:07:50.921Z,2.17
2022-09-02T02:10:21.301Z,1.80
2022-09-02T02:12:51.703Z,2.20
2022-09-02T02:17:51.055Z,2.10
2022-09-02T02:20:21.555Z,2.00
2022-09-02T02:22:50.528Z,2.20
2022-09-02T02:25:19.065Z,2.10
2022-09-02T02:27:52.869Z,2.20
2022-09-02T02:30:22.663Z,2.53
2022-09-02T02:32:51.687Z,1.88
2022-09-02T02:35:22.109Z,2.10
2022-09-02T02:37:51.062Z,1.85
2022-09-02T02:40:24.263Z,1.98
2022-09-02T02:42:53.829Z,2.20
2022-09-02T02:45:25.245Z,1.83
2022-09-02T02:47:54.972Z,2.03
2022-09-02T02:50:27.338Z,2.28
2022-09-02T02:52:56.516Z,2.00
2022-09-02T02:55:26.700Z,2.00
2022-09-02T02:57:55.380Z,2.05
2022-09-02T03:00:27.011Z,2.17
2022-09-02T03:03:00.901Z,2.33
2022-09-02T03:05:29.695Z,2.40
2022-09-02T03:07:59.078Z,2.03
2022-09-02T03:10:27.460Z,1.90
2022-09-02T03:12:55.910Z,2.00
2022-09-02T03:15:24.464Z,2.13
2022-09-02T03:17:55.848Z,2.13
2022-09-02T03:20:24.903Z,1.92
2022-09-02T03:22:59.230Z,1.98
2022-09-02T03:25:35.342Z,2.17
2022-09-02T03:28:07.528Z,2.40
2022-09-02T03:30:36.512Z,2.10
2022-09-02T03:33:07.153Z,1.98
2022-09-02T03:35:41.009Z,2.05
2022-09-02T03:38:12.488Z,2.20
2022-09-02T03:40:41.290Z,2.33
2022-09-02T03:43:09.741Z,2.15
2022-09-02T03:45:41.822Z,2.30
2022-09-02T03:48:13.790Z,1.95
2022-09-02T03:50:47.273Z,2.10
2022-09-02T03:53:20.535Z,2.15
2022-09-02T03:55:57.813Z,2.00
2022-09-02T03:58:28.536Z,2.00
2022-09-02T04:00:59.879Z,2.30
2022-09-02T04:03:28.293Z,2.20
2022-09-02T04:06:23.816Z,2.15
2022-09-02T04:08:56.880Z,2.60
2022-09-02T04:11:25.254Z,2.30
2022-09-02T04:13:54.956Z,2.30
2022-09-02T04:16:29.214Z,2.45
2022-09-02T04:19:03.237Z,3.47
2022-09-02T04:21:38.333Z,3.13
2022-09-02T04:24:10.137Z,3.05
2022-09-02T04:26:45.179Z,2.97
2022-09-02T04:29:16.738Z,2.80
2022-09-02T04:31:46.000Z,3.67
2022-09-02T04:34:14.477Z,3.22
2022-09-02T04:36:43.916Z,4.28
2022-09-02T04:39:39.321Z,3.53
2022-09-02T04:42:08.123Z,4.10
2022-09-02T04:44:37.209Z,3.95
2022-09-02T04:47:09.468Z,3.00
2022-09-02T04:49:38.867Z,2.83
2022-09-02T04:52:08.077Z,3.58
2022-09-02T04:54:37.514Z,3.20
2022-09-02T04:57:08.078Z,3.83
2022-09-02T04:59:37.271Z,3.47
2022-09-02T05:02:11.297Z,3.38
2022-09-02T05:04:40.085Z,3.25
2022-09-02T05:07:16.281Z,3.03
2022-09-02T05:09:47.686Z,3.30
2022-09-02T05:12:19.303Z,3.20
2022-09-02T05:14:53.519Z,3.08
2022-09-02T05:17:24.694Z,3.10
2022-09-02T05:19:53.319Z,3.08
2022-09-02T05:22:22.752Z,3.00
2022-09-02T05:24:51.610Z,3.25
2022-09-02T05:27:20.733Z,3.13
2022-09-02T05:29:51.010Z,2.95
2022-09-02T05:32:23.332Z,3.40
2022-09-02T05:34:54.351Z,3.20
2022-09-02T05:37:27.412Z,3.10
2022-09-02T05:39:55.892Z,3.70
2022-09-02T05:42:24.598Z,3.42
2022-09-02T05:44:54.122Z,3.03
2022-09-02T05:47:25.713Z,3.17
2022-09-02T05:49:54.950Z,3.13
2022-09-02T05:52:25.543Z,3.05
2022-09-02T05:54:56.103Z,3.00
2022-09-02T05:57:43.505Z,3.08
2022-09-02T06:00:17.904Z,2.95
2022-09-02T06:02:58.965Z,2.90
2022-09-02T06:05:38.438Z,3.10
2022-09-02T06:08:21.575Z,3.08
2022-09-02T06:10:51.727Z,3.10
2022-09-02T06:13:24.083Z,2.90
2022-09-02T06:15:56.214Z,3.10
2022-09-02T06:18:28.728Z,3.20
2022-09-02T06:20:59.231Z,3.00
2022-09-02T06:23:36.077Z,2.97
2022-09-02T06:26:09.059Z,3.40
2022-09-02T06:28:38.700Z,3.10
2022-09-02T06:31:16.571Z,3.03
2022-09-02T06:33:47.239Z,3.20
2022-09-02T06:36:19.999Z,3.10
2022-09-02T06:38:51.682Z,2.95
2022-09-02T06:41:28.457Z,3.10
2022-09-02T06:44:02.685Z,2.90
2022-09-02T06:46:37.034Z,3.05
2022-09-02T06:49:09.193Z,3.13
2022-09-02T06:51:42.593Z,2.95
2022-09-02T06:54:15.240Z,2.88
2022-09-02T06:56:49.433Z,2.95
2022-09-02T06:59:21.536Z,3.05
2022-09-02T07:01:54.423Z,2.90
2022-09-02T07:04:43.223Z,2.90
2022-09-02T07:07:16.117Z,2.92
2022-09-02T07:09:53.213Z,3.28
2022-09-02T07:12:21.842Z,2.90
2022-09-02T07:14:56.051Z,2.88
2022-09-02T07:17:38.781Z,3.00
2022-09-02T07:20:11.844Z,3.00
2022-09-02T07:22:45.550Z,2.72
2022-09-02T07:27:51.489Z,2.42
2022-09-02T07:30:20.516Z,2.38
2022-09-02T07:32:54.664Z,2.40
2022-09-02T07:35:25.186Z,2.55
2022-09-02T07:37:54.000Z,2.90
2022-09-02T07:40:23.849Z,2.20
2022-09-02T07:42:54.803Z,2.80
2022-09-02T07:45:24.340Z,2.55
2022-09-02T07:47:53.799Z,2.60
2022-09-02T07:50:25.644Z,2.45
2022-09-02T07:52:57.134Z,2.20
2022-09-02T07:55:27.326Z,2.40
2022-09-02T07:57:55.969Z,2.55
2022-09-02T08:00:27.958Z,2.67
2022-09-02T08:03:03.863Z,2.35
2022-09-02T08:05:38.306Z,2.65
2022-09-02T08:08:08.439Z,2.40
2022-09-02T08:10:40.716Z,2.50
2022-09-02T08:13:10.197Z,2.88
2022-09-02T08:15:39.131Z,2.33
2022-09-02T08:18:08.525Z,2.35
2022-09-02T08:20:41.061Z,2.25
2022-09-02T08:23:25.674Z,2.60
2022-09-02T08:26:02.589Z,2.10
2022-09-02T08:28:32.326Z,2.10
2022-09-02T08:31:05.847Z,2.38
2022-09-02T08:33:35.289Z,2.42
2022-09-02T08:36:09.559Z,2.47
2022-09-02T08:38:38.685Z,2.17
2022-09-02T08:41:38.674Z,2.08
2022-09-02T08:44:07.746Z,2.63
2022-09-02T08:46:36.872Z,2.40
2022-09-02T08:49:11.173Z,1.90
2022-09-02T08:51:56.233Z,2.20
2022-09-02T08:54:40.723Z,2.17
2022-09-02T08:57:10.570Z,2.15
2022-09-02T09:02:33.986Z,1.85
2022-09-02T09:05:31.756Z,1.80
2022-09-02T09:08:38.181Z,2.10
2022-09-02T09:11:21.960Z,1.98
2022-09-02T09:14:10.321Z,2.30
2022-09-02T09:16:59.860Z,2.30
2022-09-02T09:20:06.804Z,2.17
2022-09-02T09:22:38.815Z,2.08
2022-09-02T09:25:14.049Z,2.00
2022-09-02T09:27:45.526Z,1.83
2022-09-02T09:30:15.726Z,2.20
2022-09-02T09:32:48.176Z,2.45
2022-09-02T09:35:18.213Z,1.80
2022-09-02T09:37:51.908Z,2.10
2022-09-02T09:40:23.213Z,2.13
2022-09-02T09:43:07.927Z,1.92
2022-09-02T09:48:17.988Z,2.00
2022-09-02T09:50:48.588Z,1.83
2022-09-02T09:53:27.521Z,2.00
2022-09-02T09:55:57.276Z,2.00
2022-09-02T09:58:41.189Z,1.90
2022-09-02T10:01:26.667Z,1.80
2022-09-02T10:04:03.048Z,1.90
2022-09-02T10:06:31.326Z,1.98
2022-09-02T10:09:01.316Z,1.98
2022-09-02T10:11:35.719Z,1.90
2022-09-02T10:14:10.494Z,1.90
2022-09-02T10:17:01.202Z,1.70
2022-09-02T10:19:44.592Z,1.70
2022-09-02T10:23:04.869Z,1.88
2022-09-02T10:25:39.465Z,1.70
2022-09-02T10:28:14.357Z,1.98
2022-09-02T10:31:20.971Z,1.88
2022-09-02T10:34:18.506Z,1.77
2022-09-02T10:37:17.131Z,1.98
2022-09-02T10:39:51.480Z,1.77
2022-09-02T10:42:28.138Z,1.92
2022-09-02T10:45:05.573Z,1.80
2022-09-02T10:47:41.305Z,1.73
2022-09-02T10:50:25.508Z,2.10
2022-09-02T10:53:23.653Z,1.85
2022-09-02T10:55:58.769Z,1.90
2022-09-02T10:58:54.707Z,1.80
2022-09-02T11:01:28.348Z,1.80
2022-09-02T11:04:28.096Z,1.80
2022-09-02T11:07:03.463Z,2.05
2022-09-02T11:09:38.077Z,1.70
2022-09-02T11:12:18.869Z,1.63
2022-09-02T11:14:59.685Z,1.70
2022-09-02T11:17:39.510Z,1.70
2022-09-02T11:20:10.979Z,1.77
2022-09-02T11:23:03.680Z,1.73
2022-09-02T11:25:45.643Z,1.83
2022-09-02T11:29:02.406Z,1.50
2022-09-02T11:31:44.730Z,1.70
2022-09-02T11:34:19.857Z,1.58
2022-09-02T11:36:49.721Z,1.77
2022-09-02T11:39:51.625Z,1.40
2022-09-02T11:42:49.438Z,1.58
2022-09-02T11:45:36.779Z,1.58
2022-09-02T11:48:10.792Z,1.50
2022-09-02T11:51:22.841Z,1.60
2022-09-02T11:53:53.368Z,1.95
2022-09-02T11:56:31.278Z,1.50
2022-09-02T11:58:59.926Z,1.60
2022-09-02T12:01:43.985Z,1.70
2022-09-02T12:07:09.721Z,1.65
2022-09-02T12:09:47.792Z,1.70
2022-09-02T12:12:41.646Z,1.55
2022-09-02T12:15:18.304Z,1.42
2022-09-02T12:17:48.399Z,1.70
2022-09-02T12:20:39.039Z,1.40
2022-09-02T12:23:10.007Z,1.80
2022-09-02T12:25:48.373Z,1.57
2022-09-02T12:28:26.050Z,1.40
2022-09-02T12:30:55.249Z,1.60
2022-09-02T12:33:35.116Z,1.38
2022-09-02T12:36:06.468Z,1.40
2022-09-02T12:38:40.546Z,1.40
2022-09-02T12:41:29.016Z,1.40
2022-09-02T12:44:17.329Z,1.38
2022-09-02T12:47:00.900Z,1.50
2022-09-02T12:49:35.709Z,1.52
2022-09-02T12:52:09.120Z,1.50
2022-09-02T12:54:49.271Z,1.20
2022-09-02T12:57:19.497Z,1.33
2022-09-02T12:59:59.884Z,1.58
2022-09-02T13:02:44.889Z,1.25
2022-09-02T13:05:39.108Z,1.58
2022-09-02T13:08:29.918Z,1.40
2022-09-02T13:11:33.577Z,1.15
2022-09-02T13:14:02.089Z,1.52
2022-09-02T13:16:44.943Z,1.30
2022-09-02T13:19:44.165Z,1.40
2022-09-02T13:22:24.229Z,1.50
2022-09-02T13:25:04.305Z,1.27
2022-09-02T13:27:57.067Z,1.40
2022-09-02T13:30:50.002Z,1.27
2022-09-02T13:33:19.350Z,1.38
2022-09-02T13:35:54.793Z,1.50
2022-09-02T13:38:25.402Z,1.48
2022-09-02T13:40:54.294Z,1.50
2022-09-02T13:43:26.932Z,1.50
2022-09-02T13:46:01.279Z,1.42
2022-09-02T13:48:32.922Z,1.38
2022-09-02T13:54:21.625Z,1.60
2022-09-02T13:56:39.689Z,1.33
2022-09-02T13:59:08.015Z,1.50
2022-09-02T14:01:40.180Z,1.30
2022-09-02T14:04:15.728Z,1.55
2022-09-02T14:06:47.508Z,1.23
2022-09-02T14:09:36.781Z,1.35
2022-09-02T14:12:08.770Z,1.73
2022-09-02T14:14:37.716Z,1.55
2022-09-02T14:17:26.621Z,1.67
2022-09-02T14:20:21.430Z,1.58
2022-09-02T14:22:55.682Z,1.40
2022-09-02T14:25:27.568Z,2.05
2022-09-02T14:28:04.387Z,1.60
2022-09-02T14:30:40.465Z,1.35
2022-09-02T14:33:36.466Z,1.42
2022-09-02T14:36:08.580Z,1.65
2022-09-02T14:38:58.206Z,1.45
2022-09-02T14:41:29.769Z,1.70
2022-09-02T14:43:59.958Z,1.30
2022-09-02T14:46:36.233Z,1.67
2022-09-02T14:49:10.067Z,1.45
2022-09-02T14:52:05.603Z,1.40
2022-09-02T14:54:42.445Z,1.30
2022-09-02T14:57:33.015Z,1.70
2022-09-02T15:00:18.705Z,1.58
2022-09-02T15:02:47.819Z,1.60
2022-09-02T15:05:16.721Z,1.40
2022-09-02T15:07:46.754Z,1.45
2022-09-02T15:10:15.404Z,1.50
2022-09-02T15:12:55.412Z,1.40
2022-09-02T15:15:25.150Z,1.40
2022-09-02T15:17:54.630Z,1.60
2022-09-02T15:20:22.992Z,1.40
2022-09-02T15:22:53.579Z,1.42
2022-09-02T15:25:21.824Z,1.33
2022-09-02T15:27:50.151Z,1.45
2022-09-02T15:30:18.933Z,1.40
2022-09-02T15:32:47.181Z,1.52
2022-09-02T15:35:15.679Z,1.35
2022-09-02T15:37:44.172Z,1.83
2022-09-02T15:40:12.457Z,1.58
2022-09-02T15:42:40.775Z,1.55
2022-09-02T15:45:09.985Z,1.20
2022-09-02T15:47:42.401Z,1.20
2022-09-02T15:50:10.951Z,1.50
2022-09-02T15:55:15.109Z,1.35
2022-09-02T15:57:44.106Z,1.48
2022-09-02T16:00:12.733Z,1.50
2022-09-02T16:02:45.043Z,1.40
2022-09-02T16:05:14.188Z,1.45
2022-09-02T16:07:42.760Z,1.30
2022-09-02T16:10:11.734Z,1.48
2022-09-02T16:12:40.365Z,1.23
2022-09-02T16:15:34.499Z,1.30
2022-09-02T16:18:03.362Z,1.48
2022-09-02T16:20:31.770Z,1.20
2022-09-02T16:23:00.598Z,1.20
2022-09-02T16:25:29.334Z,1.55
2022-09-02T16:27:57.621Z,1.55
2022-09-02T16:30:26.525Z,1.30
2022-09-02T16:32:55.245Z,1.10
2022-09-02T16:35:23.695Z,1.40
2022-09-02T16:37:53.840Z,1.50
2022-09-02T16:40:32.427Z,1.27
2022-09-02T16:43:00.712Z,1.17
2022-09-02T16:45:29.361Z,1.10
2022-09-02T16:47:57.868Z,1.35
2022-09-02T16:50:26.265Z,1.13
2022-09-02T16:52:54.937Z,1.38
2022-09-02T16:55:23.537Z,1.20
2022-09-02T16:57:51.787Z,1.40
2022-09-02T17:00:20.455Z,1.15
2022-09-02T17:02:48.939Z,1.50
2022-09-02T17:05:20.440Z,1.10
2022-09-02T17:10:18.076Z,1.30
2022-09-02T17:12:46.546Z,1.33
2022-09-02T17:15:15.288Z,1.30
2022-09-02T17:17:43.569Z,1.08
2022-09-02T17:21:02.048Z,1.10
2022-09-02T17:23:30.502Z,1.10
2022-09-02T17:25:58.742Z,1.50
2022-09-02T17:28:27.447Z,1.30
2022-09-02T17:30:56.458Z,1.33
2022-09-02T17:33:24.989Z,1.30
2022-09-02T17:35:58.165Z,1.20
2022-09-02T17:38:27.383Z,1.20
2022-09-02T17:41:14.489Z,1.75
2022-09-02T17:43:42.865Z,1.30
2022-09-02T17:46:11.208Z,1.20
2022-09-02T17:48:53.888Z,1.35
2022-09-02T17:51:28.749Z,1.17
2022-09-02T17:53:57.757Z,1.20
2022-09-02T17:56:56.191Z,1.50
2022-09-02T18:00:01.451Z,1.20
2022-09-02T18:02:38.150Z,1.38
2022-09-02T18:05:22.269Z,1.40
2022-09-02T18:08:01.799Z,1.20
2022-09-02T18:10:34.505Z,1.25
2022-09-02T18:13:10.083Z,1.23
2022-09-02T18:16:10.656Z,1.30
2022-09-02T18:18:51.147Z,1.08
2022-09-02T18:21:41.184Z,1.50
2022-09-02T18:24:17.448Z,1.38
2022-09-02T18:27:05.420Z,1.25
2022-09-02T18:29:43.128Z,2.17
2022-09-02T18:32:39.122Z,1.88
2022-09-02T18:35:26.155Z,2.70
2022-09-02T18:38:28.799Z,2.90
2022-09-02T18:41:24.736Z,2.65
2022-09-02T18:44:17.043Z,3.38
2022-09-02T18:46:52.822Z,3.28
2022-09-02T18:49:25.806Z,3.28
2022-09-02T18:51:59.112Z,3.13
2022-09-02T18:54:33.246Z,3.45
2022-09-02T18:57:07.678Z,3.50
2022-09-02T18:59:43.736Z,2.42
2022-09-02T19:02:28.428Z,3.13
2022-09-02T19:05:01.637Z,3.05
2022-09-02T19:07:50.422Z,2.72
2022-09-02T19:10:18.916Z,3.53
2022-09-02T19:12:47.151Z,3.50
2022-09-02T19:15:16.000Z,3.58
2022-09-02T19:17:45.984Z,3.80
2022-09-02T19:20:14.290Z,3.97
2022-09-02T19:22:49.565Z,5.15
2022-09-02T19:25:21.990Z,4.22
2022-09-02T19:27:51.105Z,5.68
2022-09-02T19:30:24.802Z,6.07
2022-09-02T19:32:57.395Z,6.30
2022-09-02T19:35:30.297Z,5.10
2022-09-02T19:37:58.871Z,4.68
2022-09-02T19:40:36.670Z,4.50
2022-09-02T19:43:07.629Z,4.35
2022-09-02T19:45:39.208Z,5.28
2022-09-02T19:48:11.351Z,6.35
2022-09-02T19:50:45.303Z,6.63
2022-09-02T19:53:21.013Z,6.78
2022-09-02T19:55:51.544Z,6.65
2022-09-02T19:58:20.139Z,7.25
2022-09-02T20:00:48.533Z,6.18
2022-09-02T20:03:17.811Z,6.40
2022-09-02T20:05:46.404Z,6.15
2022-09-02T20:08:16.443Z,6.55
2022-09-02T20:10:55.370Z,6.28
2022-09-02T20:13:25.217Z,6.65
2022-09-02T20:15:55.118Z,7.05
2022-09-02T20:18:29.388Z,5.57
2022-09-02T20:20:59.713Z,6.22
2022-09-02T20:23:32.525Z,6.80
2022-09-02T20:26:00.912Z,6.75
2022-09-02T20:28:50.961Z,5.57
2022-09-02T20:31:31.916Z,6.20
2022-09-02T20:34:33.524Z,5.95
2022-09-02T20:37:30.239Z,6.45
2022-09-02T20:40:23.549Z,6.22
2022-09-02T20:43:14.870Z,5.70
2022-09-02T20:45:57.992Z,6.00
2022-09-02T20:49:03.090Z,5.47
2022-09-02T20:51:40.078Z,6.22
2022-09-02T20:54:22.242Z,5.60
2022-09-02T20:59:49.756Z,5.53
2022-09-02T21:02:25.555Z,5.78
2022-09-02T21:05:00.912Z,5.65
2022-09-02T21:07:42.808Z,5.88
2022-09-02T21:10:14.806Z,5.43
2022-09-02T21:12:50.823Z,5.40
2022-09-02T21:15:36.215Z,5.40
2022-09-02T21:18:09.753Z,5.15
2022-09-02T21:20:51.014Z,5.05
2022-09-02T21:23:38.527Z,4.70
2022-09-02T21:26:31.657Z,4.65
2022-09-02T21:29:18.381Z,4.88
2022-09-02T21:32:04.032Z,4.85
2022-09-02T21:34:52.669Z,4.80
2022-09-02T21:37:23.249Z,4.88
2022-09-02T21:40:02.325Z,4.80
2022-09-02T21:42:50.905Z,4.72
2022-09-02T21:45:23.657Z,4.85
2022-09-02T21:48:00.425Z,4.47
2022-09-02T21:50:58.730Z,4.60
2022-09-02T21:53:45.339Z,4.68
2022-09-02T22:00:24.050Z,4.20
2022-09-02T22:03:13.807Z,4.22
2022-09-02T22:06:11.562Z,4.43
2022-09-02T22:09:03.036Z,3.90
2022-09-02T22:11:37.370Z,4.03
2022-09-02T22:14:15.105Z,3.97
2022-09-02T22:17:01.020Z,4.13
2022-09-02T22:19:32.700Z,4.53
2022-09-02T22:22:15.597Z,4.22
2022-09-02T22:24:48.471Z,4.30
2022-09-02T22:27:34.331Z,4.35
2022-09-02T22:30:13.561Z,4.25
2022-09-02T22:32:47.387Z,3.97
2022-09-02T22:35:36.227Z,4.25
2022-09-02T22:38:21.978Z,4.00
2022-09-02T22:40:56.118Z,3.63
2022-09-02T22:43:41.486Z,3.90
2022-09-02T22:46:35.337Z,3.67
2022-09-02T22:49:30.458Z,3.70
2022-09-02T22:52:26.883Z,3.60
2022-09-02T22:54:56.963Z,3.80
2022-09-02T22:58:04.515Z,3.63
2022-09-02T23:00:42.422Z,3.60
2022-09-02T23:03:31.176Z,3.72
2022-09-02T23:06:05.057Z,3.70
2022-09-02T23:08:37.160Z,3.80
2022-09-02T23:11:13.658Z,3.95
2022-09-02T23:13:58.164Z,3.60
2022-09-02T23:16:41.663Z,3.60
2022-09-02T23:19:34.929Z,4.00
2022-09-02T23:22:15.381Z,3.72
2022-09-02T23:25:13.997Z,3.85
2022-09-02T23:28:03.966Z,3.75
2022-09-02T23:30:32.237Z,3.78
2022-09-02T23:33:51.357Z,3.63
2022-09-02T23:36:47.442Z,4.10
2022-09-02T23:39:46.861Z,4.30
2022-09-02T23:42:16.245Z,4.15
2022-09-02T23:44:46.069Z,4.32
2022-09-02T23:47:52.791Z,4.30
2022-09-02T23:50:36.087Z,3.75
2022-09-02T23:53:12.889Z,4.30
2022-09-02T23:56:18.709Z,3.92
2022-09-02T23:59:14.506Z,4.10
